createdAt,value
2017-12-05T00:01:10.002Z,16.63
2017-12-05T00:03:37.449Z,16.37
2017-12-05T00:06:04.901Z,16.40
2017-12-05T00:08:32.362Z,17.30
2017-12-05T00:10:59.808Z,15.47
2017-12-05T00:13:27.269Z,16.33
2017-12-05T00:15:54.736Z,15.37
2017-12-05T00:18:22.201Z,15.97
2017-12-05T00:20:49.647Z,16.67
2017-12-05T00:23:17.111Z,14.60
2017-12-05T00:25:44.549Z,15.37
2017-12-05T00:28:12.035Z,16.07
2017-12-05T00:30:39.465Z,15.70
2017-12-05T00:33:06.909Z,15.67
2017-12-05T00:35:53.638Z,15.40
2017-12-05T00:38:21.090Z,14.00
2017-12-05T00:40:48.548Z,14.33
2017-12-05T00:43:15.996Z,13.57
2017-12-05T00:45:43.453Z,15.13
2017-12-05T00:48:11.715Z,13.60
2017-12-05T00:50:39.167Z,14.83
2017-12-05T00:53:06.613Z,14.67
2017-12-05T00:55:34.064Z,14.47
2017-12-05T00:58:02.301Z,12.97
2017-12-05T01:00:29.748Z,14.53
2017-12-05T01:02:57.228Z,13.07
2017-12-05T01:05:24.672Z,15.07
2017-12-05T01:07:52.144Z,13.60
2017-12-05T01:10:20.369Z,15.00
2017-12-05T01:12:47.814Z,16.00
2017-12-05T01:15:15.251Z,17.03
2017-12-05T01:17:42.719Z,17.30
2017-12-05T01:20:10.173Z,16.23
2017-12-05T01:22:37.621Z,17.53
2017-12-05T01:25:05.847Z,17.77
2017-12-05T01:27:33.311Z,17.90
2017-12-05T01:30:00.785Z,16.23
2017-12-05T01:32:28.238Z,16.50
2017-12-05T01:34:55.694Z,17.50
2017-12-05T01:37:23.165Z,16.80
2017-12-05T01:39:50.621Z,16.50
2017-12-05T01:42:18.072Z,16.07
2017-12-05T01:44:45.561Z,16.30
2017-12-05T01:47:13.781Z,15.73
2017-12-05T01:49:41.239Z,16.50
2017-12-05T01:52:08.681Z,15.43
2017-12-05T01:54:36.133Z,14.97
2017-12-05T01:57:03.604Z,14.87
2017-12-05T01:59:31.094Z,13.13
2017-12-05T02:01:59.544Z,15.03
2017-12-05T02:04:26.991Z,14.50
2017-12-05T02:06:54.441Z,13.97
2017-12-05T02:09:21.884Z,14.70
2017-12-05T02:11:49.355Z,15.00
2017-12-05T02:14:16.792Z,15.00
2017-12-05T02:16:44.257Z,15.50
2017-12-05T02:19:11.761Z,15.17
2017-12-05T02:21:39.202Z,13.50
2017-12-05T02:24:06.663Z,15.60
2017-12-05T02:26:34.127Z,14.40
2017-12-05T02:29:01.613Z,14.83
2017-12-05T02:31:29.065Z,15.43
2017-12-05T02:33:56.500Z,15.40
2017-12-05T02:36:24.009Z,15.03
2017-12-05T02:38:52.223Z,15.83
2017-12-05T02:41:19.672Z,15.80
2017-12-05T02:43:47.111Z,16.17
2017-12-05T02:46:14.574Z,15.97
2017-12-05T02:48:42.020Z,18.33
2017-12-05T02:51:10.244Z,15.33
2017-12-05T02:53:37.670Z,15.80
2017-12-05T02:56:05.127Z,16.73
2017-12-05T02:58:32.589Z,16.43
2017-12-05T03:01:00.074Z,15.83
2017-12-05T03:06:25.571Z,14.57
2017-12-05T03:08:53.007Z,16.63
2017-12-05T03:11:20.476Z,16.77
2017-12-05T03:13:47.916Z,15.80
2017-12-05T03:16:15.404Z,17.43
2017-12-05T03:18:42.845Z,16.17
2017-12-05T03:21:10.310Z,16.07
2017-12-05T03:23:37.743Z,15.40
2017-12-05T03:26:05.958Z,16.57
2017-12-05T03:28:33.391Z,16.23
2017-12-05T03:31:00.839Z,15.23
2017-12-05T03:33:28.324Z,16.27
2017-12-05T03:35:55.797Z,15.47
2017-12-05T03:38:23.225Z,16.33
2017-12-05T03:40:51.495Z,17.00
2017-12-05T03:43:18.981Z,16.73
2017-12-05T03:45:46.432Z,14.90
2017-12-05T03:48:13.903Z,17.83
2017-12-05T03:50:41.364Z,15.83
2017-12-05T03:53:08.801Z,17.30
2017-12-05T03:55:37.008Z,16.37
2017-12-05T03:58:07.204Z,17.17
2017-12-05T04:00:34.647Z,14.67
2017-12-05T04:03:02.122Z,16.23
2017-12-05T04:05:29.556Z,15.17
2017-12-05T04:07:57.100Z,16.13
2017-12-05T04:10:25.382Z,16.50
2017-12-05T04:12:52.843Z,17.80
2017-12-05T04:15:20.281Z,15.90
2017-12-05T04:17:49.440Z,16.20
2017-12-05T04:20:16.893Z,17.37
2017-12-05T04:22:44.328Z,16.17
2017-12-05T04:25:11.863Z,16.43
2017-12-05T04:27:40.073Z,15.67
2017-12-05T04:30:08.264Z,14.37
2017-12-05T04:32:35.725Z,16.57
2017-12-05T04:35:03.173Z,16.23
2017-12-05T04:37:30.635Z,17.40
2017-12-05T04:39:58.077Z,16.80
2017-12-05T04:42:42.430Z,16.93
2017-12-05T04:45:09.882Z,17.20
2017-12-05T04:47:37.352Z,18.23
2017-12-05T04:50:04.821Z,18.37
2017-12-05T04:52:32.268Z,16.50
2017-12-05T04:54:59.788Z,16.80
2017-12-05T04:57:27.241Z,17.53
2017-12-05T04:59:54.681Z,16.60
2017-12-05T05:02:22.955Z,16.90
2017-12-05T05:04:50.428Z,17.20
2017-12-05T05:07:18.647Z,18.23
2017-12-05T05:09:46.093Z,17.97
2017-12-05T05:12:13.551Z,18.70
2017-12-05T05:14:41.088Z,17.57
2017-12-05T05:17:08.583Z,15.97
2017-12-05T05:19:36.032Z,16.23
2017-12-05T05:22:03.509Z,17.33
2017-12-05T05:24:30.978Z,17.40
2017-12-05T05:27:00.414Z,16.13
2017-12-05T05:29:28.621Z,16.30
2017-12-05T05:31:58.088Z,15.70
2017-12-05T05:34:26.303Z,16.03
2017-12-05T05:37:01.007Z,16.70
2017-12-05T05:39:34.916Z,16.73
2017-12-05T05:42:02.351Z,17.00
2017-12-05T05:44:30.557Z,15.67
2017-12-05T05:46:57.988Z,16.27
2017-12-05T05:49:25.425Z,18.10
2017-12-05T05:51:52.850Z,15.40
2017-12-05T05:54:20.304Z,16.83
2017-12-05T05:57:05.179Z,16.60
2017-12-05T05:59:32.621Z,17.53
2017-12-05T06:02:00.056Z,18.07
2017-12-05T06:04:27.490Z,17.87
2017-12-05T06:06:55.687Z,17.90
2017-12-05T06:09:23.133Z,17.10
2017-12-05T06:11:51.325Z,17.93
2017-12-05T06:14:18.765Z,20.30
2017-12-05T06:16:46.196Z,16.63
2017-12-05T06:19:13.668Z,17.90
2017-12-05T06:21:41.076Z,17.47
2017-12-05T06:24:08.517Z,17.60
2017-12-05T06:26:35.943Z,18.30
2017-12-05T06:29:03.379Z,16.37
2017-12-05T06:31:30.804Z,17.10
2017-12-05T06:33:58.242Z,19.00
2017-12-05T06:36:30.256Z,17.90
2017-12-05T06:38:59.671Z,16.60
2017-12-05T06:41:27.871Z,18.07
2017-12-05T06:44:02.124Z,16.70
2017-12-05T06:46:29.548Z,16.60
2017-12-05T06:48:57.004Z,17.03
2017-12-05T06:51:24.432Z,16.30
2017-12-05T06:53:52.642Z,18.70
2017-12-05T06:56:20.089Z,17.63
2017-12-05T06:58:47.545Z,17.30
2017-12-05T07:01:37.896Z,15.43
2017-12-05T07:04:05.344Z,14.20
2017-12-05T07:06:47.202Z,14.20
2017-12-05T07:09:15.420Z,13.50
2017-12-05T07:11:42.888Z,14.90
2017-12-05T07:14:10.330Z,11.60
2017-12-05T07:16:37.763Z,11.97
2017-12-05T07:19:05.211Z,12.63
2017-12-05T07:21:32.636Z,9.70
2017-12-05T07:24:00.881Z,11.07
2017-12-05T07:26:28.304Z,10.70
2017-12-05T07:28:55.740Z,11.33
2017-12-05T07:31:23.188Z,12.00
2017-12-05T07:33:50.713Z,10.67
2017-12-05T07:36:18.178Z,11.07
2017-12-05T07:38:48.620Z,11.27
2017-12-05T07:41:16.813Z,10.97
2017-12-05T07:43:44.295Z,10.70
2017-12-05T07:46:11.810Z,12.10
2017-12-05T07:48:39.229Z,10.40
2017-12-05T07:51:11.925Z,10.83
2017-12-05T07:53:39.363Z,9.97
2017-12-05T07:56:07.573Z,10.70
2017-12-05T07:58:35.032Z,10.50
2017-12-05T08:01:17.283Z,9.33
2017-12-05T08:03:44.740Z,10.30
2017-12-05T08:06:12.211Z,9.70
2017-12-05T08:09:01.173Z,10.23
2017-12-05T08:11:28.620Z,9.50
2017-12-05T08:13:56.048Z,10.10
2017-12-05T08:16:23.489Z,9.50
2017-12-05T08:18:51.681Z,9.53
2017-12-05T08:21:19.124Z,9.07
2017-12-05T08:23:47.314Z,9.70
2017-12-05T08:26:14.744Z,10.17
2017-12-05T08:28:42.954Z,8.17
2017-12-05T08:31:10.394Z,9.57
2017-12-05T08:33:38.576Z,9.90
2017-12-05T08:36:06.114Z,10.50
2017-12-05T08:38:33.527Z,8.20
2017-12-05T08:41:00.976Z,9.80
2017-12-05T08:43:28.410Z,9.70
2017-12-05T08:45:55.851Z,9.47
2017-12-05T08:48:24.066Z,10.23
2017-12-05T08:50:51.551Z,9.67
2017-12-05T08:53:18.989Z,9.77
2017-12-05T08:55:46.435Z,8.93
2017-12-05T08:58:13.872Z,9.50
2017-12-05T09:00:41.312Z,8.90
2017-12-05T09:03:09.507Z,8.10
2017-12-05T09:05:36.948Z,8.50
2017-12-05T09:08:04.388Z,8.00
2017-12-05T09:10:32.580Z,7.07
2017-12-05T09:13:00.029Z,8.90
2017-12-05T09:15:28.251Z,7.07
2017-12-05T09:17:55.727Z,7.97
2017-12-05T09:20:23.172Z,7.93
2017-12-05T09:22:50.611Z,8.70
2017-12-05T09:25:18.800Z,8.70
2017-12-05T09:27:46.223Z,8.13
2017-12-05T09:30:13.659Z,7.90
2017-12-05T09:32:41.876Z,8.97
2017-12-05T09:35:09.309Z,7.80
2017-12-05T09:37:36.736Z,9.27
2017-12-05T09:40:04.217Z,8.53
2017-12-05T09:42:32.424Z,8.10
2017-12-05T09:44:59.863Z,9.37
2017-12-05T09:47:28.453Z,8.50
2017-12-05T09:49:55.916Z,8.37
2017-12-05T09:52:23.328Z,8.20
2017-12-05T09:55:01.105Z,8.57
2017-12-05T09:57:28.529Z,6.40
2017-12-05T09:59:55.965Z,7.03
2017-12-05T10:02:23.399Z,6.87
2017-12-05T10:04:52.694Z,6.10
2017-12-05T10:07:20.205Z,6.23
2017-12-05T10:09:47.644Z,7.57
2017-12-05T10:12:15.072Z,6.97
2017-12-05T10:14:43.267Z,7.00
2017-12-05T10:17:10.727Z,6.90
2017-12-05T10:19:38.147Z,7.43
2017-12-05T10:22:05.699Z,7.87
2017-12-05T10:24:33.201Z,7.73
2017-12-05T10:27:00.652Z,7.40
2017-12-05T10:29:28.872Z,9.03
2017-12-05T10:31:56.312Z,6.67
2017-12-05T10:34:23.770Z,7.00
2017-12-05T10:36:51.201Z,6.70
2017-12-05T10:39:18.619Z,7.20
2017-12-05T10:41:46.051Z,6.50
2017-12-05T10:44:13.491Z,7.30
2017-12-05T10:46:40.913Z,8.30
2017-12-05T10:49:13.098Z,7.40
2017-12-05T10:51:47.605Z,7.77
2017-12-05T10:54:21.629Z,6.50
2017-12-05T10:56:49.120Z,7.47
2017-12-05T10:59:16.485Z,7.50
2017-12-05T11:01:43.975Z,6.43
2017-12-05T11:04:11.411Z,6.47
2017-12-05T11:06:38.844Z,7.20
2017-12-05T11:09:06.296Z,7.70
2017-12-05T11:11:33.760Z,7.40
2017-12-05T11:14:01.219Z,8.07
2017-12-05T11:16:28.675Z,7.53
2017-12-05T11:18:56.109Z,6.90
2017-12-05T11:21:23.546Z,7.73
2017-12-05T11:23:51.751Z,7.60
2017-12-05T11:26:19.184Z,8.10
2017-12-05T11:28:46.628Z,8.63
2017-12-05T11:31:14.074Z,8.40
2017-12-05T11:33:41.516Z,8.23
2017-12-05T11:36:08.977Z,7.30
2017-12-05T11:38:36.400Z,7.90
2017-12-05T11:41:03.855Z,8.50
2017-12-05T11:43:31.324Z,8.27
2017-12-05T11:45:58.745Z,7.43
2017-12-05T11:48:26.168Z,6.67
2017-12-05T11:50:53.596Z,6.50
2017-12-05T11:53:21.048Z,8.00
2017-12-05T11:55:48.485Z,7.30
2017-12-05T11:58:20.040Z,7.93
2017-12-05T12:00:47.467Z,8.50
2017-12-05T12:03:14.894Z,7.10
2017-12-05T12:05:42.332Z,7.30
2017-12-05T12:08:09.759Z,6.20
2017-12-05T12:10:37.191Z,7.00
2017-12-05T12:16:07.491Z,7.50
2017-12-05T12:18:34.935Z,7.13
2017-12-05T12:21:02.444Z,7.03
2017-12-05T12:23:29.917Z,6.27
2017-12-05T12:25:57.353Z,7.20
2017-12-05T12:28:24.784Z,7.07
2017-12-05T12:30:52.207Z,7.60
2017-12-05T12:33:24.756Z,7.43
2017-12-05T12:35:52.176Z,7.70
2017-12-05T12:38:19.615Z,7.20
2017-12-05T12:40:47.049Z,6.60
2017-12-05T12:43:14.482Z,7.50
2017-12-05T12:45:42.676Z,8.13
2017-12-05T12:48:10.861Z,7.40
2017-12-05T12:50:38.283Z,6.67
2017-12-05T12:53:05.753Z,7.77
2017-12-05T12:55:33.963Z,8.37
2017-12-05T12:58:01.425Z,7.40
2017-12-05T13:00:28.864Z,8.07
2017-12-05T13:02:56.315Z,7.90
2017-12-05T13:05:23.740Z,8.13
2017-12-05T13:07:51.171Z,9.63
2017-12-05T13:10:18.590Z,7.60
2017-12-05T13:12:50.933Z,9.60
2017-12-05T13:15:19.116Z,8.53
2017-12-05T13:17:47.343Z,9.00
2017-12-05T13:20:14.776Z,9.00
2017-12-05T13:22:42.184Z,8.10
2017-12-05T13:25:09.619Z,9.10
2017-12-05T13:27:37.100Z,7.83
2017-12-05T13:30:04.528Z,9.57
2017-12-05T13:32:31.974Z,9.23
2017-12-05T13:34:59.419Z,8.87
2017-12-05T13:37:26.859Z,8.47
2017-12-05T13:39:54.302Z,9.47
2017-12-05T13:42:21.737Z,10.20
2017-12-05T13:44:49.196Z,8.00
2017-12-05T13:47:16.634Z,8.40
2017-12-05T13:49:44.090Z,7.73
2017-12-05T13:52:11.537Z,8.00
2017-12-05T13:54:38.993Z,8.43
2017-12-05T13:57:06.440Z,9.20
2017-12-05T13:59:33.900Z,10.10
2017-12-05T14:02:01.381Z,9.67
2017-12-05T14:04:28.824Z,9.10
2017-12-05T14:06:56.265Z,7.73
2017-12-05T14:09:23.702Z,8.90
2017-12-05T14:11:51.153Z,8.87
2017-12-05T14:14:20.349Z,9.07
2017-12-05T14:16:48.569Z,8.53
2017-12-05T14:19:16.040Z,8.73
2017-12-05T14:21:50.084Z,11.27
2017-12-05T14:24:18.287Z,9.00
2017-12-05T14:26:45.812Z,10.27
2017-12-05T14:29:13.235Z,10.33
2017-12-05T14:31:41.741Z,8.90
2017-12-05T14:34:09.184Z,10.10
2017-12-05T14:36:36.612Z,10.27
2017-12-05T14:39:04.056Z,8.57
2017-12-05T14:41:31.480Z,9.00
2017-12-05T14:43:59.676Z,9.93
2017-12-05T14:46:27.135Z,9.57
2017-12-05T14:48:55.329Z,10.17
2017-12-05T14:51:22.762Z,11.10
2017-12-05T14:53:50.189Z,9.20
2017-12-05T14:56:17.613Z,9.87
2017-12-05T14:58:45.059Z,10.03
2017-12-05T15:01:12.503Z,12.20
2017-12-05T15:03:39.918Z,9.40
2017-12-05T15:06:07.343Z,10.17
2017-12-05T15:08:34.782Z,11.80
2017-12-05T15:11:02.237Z,10.17
2017-12-05T15:13:29.664Z,9.80
2017-12-05T15:15:57.856Z,10.27
2017-12-05T15:18:25.304Z,12.37
2017-12-05T15:20:52.732Z,11.90
2017-12-05T15:23:20.171Z,10.87
2017-12-05T15:25:47.608Z,10.90
2017-12-05T15:28:15.044Z,10.77
2017-12-05T15:30:42.469Z,10.77
2017-12-05T15:33:10.665Z,11.23
2017-12-05T15:35:38.107Z,11.30
2017-12-05T15:38:06.312Z,11.67
2017-12-05T15:40:33.736Z,11.17
2017-12-05T15:43:01.940Z,11.50
2017-12-05T15:45:29.368Z,11.70
2017-12-05T15:47:57.564Z,13.83
2017-12-05T15:50:29.300Z,13.10
2017-12-05T15:52:57.501Z,11.17
2017-12-05T15:55:24.933Z,12.00
2017-12-05T15:57:53.127Z,11.87
2017-12-05T16:00:26.503Z,11.90
2017-12-05T16:02:54.691Z,13.87
2017-12-05T16:05:22.124Z,12.53
2017-12-05T16:07:49.552Z,13.43
2017-12-05T16:10:16.989Z,11.73
2017-12-05T16:12:44.420Z,11.57
2017-12-05T16:15:11.852Z,12.20
2017-12-05T16:17:39.284Z,14.27
2017-12-05T16:20:06.716Z,12.07
2017-12-05T16:22:34.152Z,11.60
2017-12-05T16:25:01.577Z,13.23
2017-12-05T16:27:29.052Z,11.67
2017-12-05T16:29:57.244Z,13.53
2017-12-05T16:32:24.685Z,12.07
2017-12-05T16:34:52.883Z,12.00
2017-12-05T16:37:20.312Z,13.30
2017-12-05T16:39:48.508Z,14.57
2017-12-05T16:42:15.989Z,12.73
2017-12-05T16:44:45.207Z,12.47
2017-12-05T16:47:13.408Z,13.43
2017-12-05T16:49:44.778Z,12.60
2017-12-05T16:52:12.220Z,12.40
2017-12-05T16:54:40.429Z,13.30
2017-12-05T16:57:18.596Z,12.33
2017-12-05T16:59:46.849Z,12.93
2017-12-05T17:02:14.305Z,12.70
2017-12-05T17:04:41.745Z,15.03
2017-12-05T17:07:09.192Z,13.40
2017-12-05T17:09:36.628Z,11.77
2017-12-05T17:12:04.062Z,12.70
2017-12-05T17:14:32.307Z,12.50
2017-12-05T17:16:59.752Z,11.20
2017-12-05T17:19:27.213Z,12.23
2017-12-05T17:21:54.682Z,11.67
2017-12-05T17:24:22.113Z,11.03
2017-12-05T17:26:51.597Z,12.60
2017-12-05T17:29:19.024Z,11.80
2017-12-05T17:31:47.281Z,12.80
2017-12-05T17:34:17.842Z,11.77
2017-12-05T17:36:46.050Z,13.17
2017-12-05T17:39:17.144Z,13.77
2017-12-05T17:41:45.624Z,13.20
2017-12-05T17:44:19.524Z,12.00
2017-12-05T17:46:50.471Z,12.67
2017-12-05T17:49:18.037Z,13.17
2017-12-05T17:51:45.353Z,12.30
2017-12-05T17:54:12.810Z,12.90
2017-12-05T17:56:40.257Z,11.90
2017-12-05T17:59:07.706Z,12.63
2017-12-05T18:01:35.132Z,11.80
2017-12-05T18:04:02.631Z,12.30
2017-12-05T18:06:30.097Z,13.00
2017-12-05T18:08:57.523Z,11.50
2017-12-05T18:11:24.959Z,13.47
2017-12-05T18:13:53.194Z,14.20
2017-12-05T18:16:20.654Z,14.27
2017-12-05T18:18:48.092Z,12.97
2017-12-05T18:21:15.545Z,12.60
2017-12-05T18:23:42.975Z,13.40
2017-12-05T18:26:10.403Z,13.30
2017-12-05T18:28:37.837Z,11.13
2017-12-05T18:31:05.265Z,12.30
2017-12-05T18:33:32.696Z,11.07
2017-12-05T18:36:00.129Z,12.93
2017-12-05T18:38:27.564Z,12.90
2017-12-05T18:40:59.518Z,12.70
2017-12-05T18:43:33.242Z,11.83
2017-12-05T18:46:00.698Z,13.13
2017-12-05T18:48:28.152Z,11.83
2017-12-05T18:50:55.593Z,11.67
2017-12-05T18:53:23.800Z,11.20
2017-12-05T18:55:51.231Z,12.20
2017-12-05T18:58:18.677Z,14.60
2017-12-05T19:00:46.114Z,13.20
2017-12-05T19:03:13.562Z,11.67
2017-12-05T19:05:40.988Z,13.40
2017-12-05T19:08:09.212Z,11.70
2017-12-05T19:10:36.641Z,13.50
2017-12-05T19:13:04.100Z,12.03
2017-12-05T19:15:31.534Z,13.80
2017-12-05T19:17:59.045Z,11.30
2017-12-05T19:20:26.422Z,12.63
2017-12-05T19:22:53.904Z,12.60
2017-12-05T19:25:21.317Z,12.70
2017-12-05T19:27:48.750Z,12.30
2017-12-05T19:30:16.217Z,12.40
2017-12-05T19:32:43.661Z,12.10
2017-12-05T19:35:11.101Z,13.30
2017-12-05T19:37:38.530Z,11.37
2017-12-05T19:40:05.964Z,12.20
2017-12-05T19:42:33.388Z,11.90
2017-12-05T19:45:01.053Z,12.37
2017-12-05T19:47:28.481Z,16.37
2017-12-05T19:49:55.937Z,14.67
2017-12-05T19:52:23.369Z,13.47
2017-12-05T19:54:50.812Z,14.60
2017-12-05T19:57:18.309Z,13.50
2017-12-05T19:59:46.512Z,12.57
2017-12-05T20:02:13.960Z,12.93
2017-12-05T20:04:42.164Z,12.10
2017-12-05T20:07:09.599Z,12.20
2017-12-05T20:09:37.045Z,13.20
2017-12-05T20:12:05.252Z,13.77
2017-12-05T20:14:45.508Z,13.70
2017-12-05T20:17:13.218Z,12.07
2017-12-05T20:19:40.661Z,13.63
2017-12-05T20:22:08.101Z,13.23
2017-12-05T20:24:35.542Z,13.23
2017-12-05T20:27:03.023Z,13.00
2017-12-05T20:29:30.461Z,13.47
2017-12-05T20:34:30.880Z,12.30
2017-12-05T20:37:00.380Z,13.33
2017-12-05T20:39:28.601Z,12.40
2017-12-05T20:41:56.020Z,14.20
2017-12-05T20:44:23.460Z,13.80
2017-12-05T20:46:51.670Z,14.43
2017-12-05T20:49:19.101Z,14.93
2017-12-05T20:51:46.536Z,13.27
2017-12-05T20:54:13.961Z,13.43
2017-12-05T20:56:41.401Z,13.20
2017-12-05T20:59:08.854Z,12.50
2017-12-05T21:01:36.299Z,14.00
2017-12-05T21:04:03.804Z,12.83
2017-12-05T21:06:31.236Z,14.30
2017-12-05T21:08:58.664Z,14.37
2017-12-05T21:11:26.098Z,15.57
2017-12-05T21:13:54.279Z,14.77
2017-12-05T21:16:22.513Z,15.37
2017-12-05T21:18:50.954Z,14.80
2017-12-05T21:21:18.376Z,14.33
2017-12-05T21:23:45.844Z,14.27
2017-12-05T21:26:13.245Z,13.50
2017-12-05T21:28:40.684Z,13.70
2017-12-05T21:31:08.112Z,14.40
2017-12-05T21:33:35.590Z,13.80
2017-12-05T21:36:07.660Z,14.07
2017-12-05T21:38:35.092Z,14.87
2017-12-05T21:41:03.292Z,14.70
2017-12-05T21:43:32.681Z,15.13
2017-12-05T21:46:13.258Z,14.50
2017-12-05T21:48:40.691Z,13.90
2017-12-05T21:51:08.893Z,12.10
2017-12-05T21:53:36.329Z,14.13
2017-12-05T21:56:04.538Z,14.83
2017-12-05T21:58:31.981Z,13.73
2017-12-05T22:00:59.485Z,15.27
2017-12-05T22:03:26.904Z,14.50
2017-12-05T22:05:54.340Z,13.17
2017-12-05T22:08:22.696Z,12.93
2017-12-05T22:10:50.132Z,15.00
2017-12-05T22:16:11.905Z,13.87
2017-12-05T22:18:40.108Z,14.23
2017-12-05T22:21:07.535Z,13.20
2017-12-05T22:23:35.731Z,13.97
2017-12-05T22:26:03.168Z,14.10
2017-12-05T22:28:31.364Z,13.60
2017-12-05T22:30:58.805Z,11.87
2017-12-05T22:33:27.000Z,16.57
2017-12-05T22:35:54.445Z,13.93
2017-12-05T22:38:22.632Z,14.97
2017-12-05T22:40:50.065Z,13.53
2017-12-05T22:43:18.255Z,13.70
2017-12-05T22:45:45.690Z,13.10
2017-12-05T22:48:13.120Z,14.23
2017-12-05T22:50:40.556Z,14.00
2017-12-05T22:53:07.998Z,14.20
2017-12-05T22:55:35.417Z,13.83
2017-12-05T22:58:02.868Z,14.10
2017-12-05T23:00:30.284Z,11.83
2017-12-05T23:02:57.721Z,13.57
2017-12-05T23:05:25.148Z,14.13
2017-12-05T23:07:52.583Z,14.43
2017-12-05T23:10:20.017Z,13.10
2017-12-05T23:12:47.462Z,14.97
2017-12-05T23:15:14.903Z,14.60
2017-12-05T23:17:42.337Z,14.60
2017-12-05T23:20:10.549Z,14.23
2017-12-05T23:22:38.031Z,15.27
2017-12-05T23:25:05.473Z,14.03
2017-12-05T23:27:32.905Z,14.57
2017-12-05T23:30:00.335Z,14.87
2017-12-05T23:32:28.540Z,15.00
2017-12-05T23:34:55.960Z,14.57
2017-12-05T23:37:23.411Z,14.77
2017-12-05T23:39:50.840Z,17.17
2017-12-05T23:42:18.279Z,14.60
2017-12-05T23:44:45.708Z,14.57
2017-12-05T23:47:14.341Z,15.37
2017-12-05T23:49:41.780Z,14.80
2017-12-05T23:52:09.210Z,16.57
2017-12-05T23:54:36.646Z,13.90
2017-12-05T23:57:04.836Z,13.70
2017-12-05T23:59:33.044Z,13.53
